createdAt,value
2023-01-09T00:02:26.280Z,93.14
2023-01-09T00:05:29.357Z,93.64
2023-01-09T00:08:32.443Z,94.12
2023-01-09T00:11:35.385Z,94.10
2023-01-09T00:14:38.126Z,93.80
2023-01-09T00:17:41.379Z,94.06
2023-01-09T00:20:44.196Z,94.04
2023-01-09T00:23:47.144Z,94.43
2023-01-09T00:26:49.821Z,94.46
2023-01-09T00:29:53.197Z,94.54
2023-01-09T00:32:56.499Z,94.85
2023-01-09T00:35:59.336Z,94.85
2023-01-09T00:39:02.259Z,94.62
2023-01-09T00:42:06.952Z,95.10
2023-01-09T00:45:14.699Z,95.11
2023-01-09T00:48:26.980Z,95.35
2023-01-09T00:51:29.801Z,95.66
2023-01-09T00:54:33.122Z,95.46
2023-01-09T00:57:35.881Z,95.58
2023-01-09T01:00:38.890Z,95.78
2023-01-09T01:03:41.681Z,95.18
2023-01-09T01:07:03.380Z,95.70
2023-01-09T01:10:10.515Z,95.63
2023-01-09T01:13:14.395Z,95.82
2023-01-09T01:16:18.419Z,95.94
2023-01-09T01:19:21.441Z,96.36
2023-01-09T01:22:24.177Z,96.46
2023-01-09T01:25:27.663Z,96.26
2023-01-09T01:28:30.238Z,95.76
2023-01-09T01:31:33.173Z,95.70
2023-01-09T01:34:35.739Z,95.52
2023-01-09T01:37:39.244Z,95.34
2023-01-09T01:40:41.849Z,95.37
2023-01-09T01:43:56.159Z,95.59
2023-01-09T01:46:58.812Z,95.41
2023-01-09T01:50:08.483Z,95.49
2023-01-09T01:53:14.115Z,95.51
2023-01-09T01:56:32.804Z,95.56
2023-01-09T01:59:41.027Z,95.95
2023-01-09T02:02:45.996Z,96.21
2023-01-09T02:05:49.258Z,96.28
2023-01-09T02:08:51.892Z,96.39
2023-01-09T02:11:58.418Z,96.43
2023-01-09T02:15:11.654Z,96.11
2023-01-09T02:18:26.196Z,96.03
2023-01-09T02:21:28.741Z,96.09
2023-01-09T02:24:55.486Z,95.59
2023-01-09T02:28:36.619Z,95.81
2023-01-09T02:31:50.108Z,95.91
2023-01-09T02:34:55.475Z,95.75
2023-01-09T02:38:02.655Z,95.68
2023-01-09T02:41:13.183Z,95.83
2023-01-09T02:44:18.142Z,95.48
2023-01-09T02:47:20.832Z,95.70
2023-01-09T02:51:01.298Z,95.93
2023-01-09T02:54:25.297Z,95.69
2023-01-09T02:57:49.571Z,95.77
2023-01-09T03:00:58.194Z,95.15
2023-01-09T03:04:21.411Z,94.62
2023-01-09T03:07:37.791Z,94.01
2023-01-09T03:10:56.228Z,94.20
2023-01-09T03:14:07.194Z,94.61
2023-01-09T03:17:14.309Z,94.61
2023-01-09T03:20:21.835Z,94.95
2023-01-09T03:23:24.732Z,94.79
2023-01-09T03:26:29.543Z,94.61
2023-01-09T03:29:32.983Z,94.55
2023-01-09T03:32:35.631Z,94.78
2023-01-09T03:35:38.549Z,94.52
2023-01-09T03:38:41.438Z,94.47
2023-01-09T03:41:44.333Z,94.46
2023-01-09T03:44:46.946Z,94.51
2023-01-09T03:47:52.261Z,94.54
2023-01-09T03:50:56.191Z,94.19
2023-01-09T03:53:59.147Z,94.47
2023-01-09T03:57:01.856Z,94.41
2023-01-09T04:00:05.527Z,94.47
2023-01-09T04:03:16.753Z,94.44
2023-01-09T04:06:19.824Z,94.63
2023-01-09T04:09:22.679Z,94.44
2023-01-09T04:12:25.776Z,94.37
2023-01-09T04:15:28.376Z,94.54
2023-01-09T04:18:31.292Z,94.47
2023-01-09T04:21:34.531Z,94.46
2023-01-09T04:24:37.390Z,94.57
2023-01-09T04:27:40.053Z,94.99
2023-01-09T04:30:43.307Z,94.63
2023-01-09T04:33:45.917Z,94.58
2023-01-09T04:36:48.857Z,94.70
2023-01-09T04:39:53.930Z,94.87
2023-01-09T04:42:56.872Z,94.62
2023-01-09T04:45:59.555Z,94.67
2023-01-09T04:49:02.984Z,94.26
2023-01-09T04:52:06.106Z,94.30
2023-01-09T04:55:09.465Z,93.83
2023-01-09T04:58:12.144Z,94.26
2023-01-09T05:01:15.225Z,93.98
2023-01-09T05:04:18.146Z,93.83
2023-01-09T05:07:21.172Z,93.92
2023-01-09T05:10:23.931Z,93.29
2023-01-09T05:13:27.165Z,92.76
2023-01-09T05:16:31.371Z,92.77
2023-01-09T05:19:34.733Z,92.43
2023-01-09T05:22:37.498Z,91.89
2023-01-09T05:25:42.480Z,92.51
2023-01-09T05:28:45.312Z,92.48
2023-01-09T05:31:48.321Z,91.97
2023-01-09T05:34:50.940Z,92.23
2023-01-09T05:37:53.988Z,92.33
2023-01-09T05:40:56.580Z,92.10
2023-01-09T05:43:59.456Z,90.94
2023-01-09T05:47:02.999Z,90.47
2023-01-09T05:50:23.259Z,90.29
2023-01-09T05:53:50.810Z,90.29
2023-01-09T05:56:53.717Z,90.60
2023-01-09T05:59:56.377Z,90.75
2023-01-09T06:03:00.128Z,90.96
2023-01-09T06:06:03.283Z,90.96
2023-01-09T06:09:05.948Z,90.78
2023-01-09T06:12:08.895Z,90.31
2023-01-09T06:15:11.825Z,89.62
2023-01-09T06:18:14.996Z,90.02
2023-01-09T06:21:17.725Z,89.94
2023-01-09T06:24:20.698Z,90.78
2023-01-09T06:27:23.311Z,89.68
2023-01-09T06:30:26.225Z,89.89
2023-01-09T06:33:28.793Z,89.40
2023-01-09T06:36:31.646Z,89.46
2023-01-09T06:39:34.331Z,89.31
2023-01-09T06:42:37.329Z,88.94
2023-01-09T06:45:41.736Z,88.86
2023-01-09T06:48:47.536Z,88.48
2023-01-09T06:51:51.866Z,88.03
2023-01-09T06:54:54.877Z,87.67
2023-01-09T06:57:57.501Z,88.34
2023-01-09T07:01:00.532Z,88.23
2023-01-09T07:04:05.412Z,88.28
2023-01-09T07:07:08.353Z,88.27
2023-01-09T07:10:11.701Z,87.82
2023-01-09T07:13:14.702Z,87.82
2023-01-09T07:16:18.302Z,88.20
2023-01-09T07:19:25.543Z,88.10
2023-01-09T07:22:28.240Z,88.28
2023-01-09T07:25:33.507Z,87.70
2023-01-09T07:28:37.723Z,87.95
2023-01-09T07:31:40.687Z,87.43
2023-01-09T07:34:43.790Z,87.49
2023-01-09T07:37:47.950Z,87.48
2023-01-09T07:40:50.784Z,86.61
2023-01-09T07:43:53.673Z,86.76
2023-01-09T07:46:56.415Z,87.36
2023-01-09T07:49:59.463Z,87.32
2023-01-09T07:53:02.257Z,85.41
2023-01-09T07:56:05.611Z,85.95
2023-01-09T07:59:08.555Z,85.14
2023-01-09T08:02:12.478Z,85.66
2023-01-09T08:05:16.082Z,85.13
2023-01-09T08:08:18.672Z,84.98
2023-01-09T08:11:21.915Z,86.21
2023-01-09T08:14:24.808Z,87.17
2023-01-09T08:17:28.282Z,87.65
2023-01-09T08:20:31.184Z,87.39
2023-01-09T08:23:34.160Z,87.37
2023-01-09T08:26:36.704Z,87.52
2023-01-09T08:29:39.704Z,87.97
2023-01-09T08:32:42.703Z,88.72
2023-01-09T08:35:46.094Z,89.08
2023-01-09T08:38:48.771Z,89.01
2023-01-09T08:42:10.377Z,89.44
2023-01-09T08:45:31.610Z,89.65
2023-01-09T08:48:34.793Z,90.71
2023-01-09T08:51:37.381Z,92.23
2023-01-09T08:54:40.652Z,93.19
2023-01-09T08:58:01.767Z,93.27
2023-01-09T09:01:08.427Z,94.63
2023-01-09T09:04:11.284Z,94.69
2023-01-09T09:07:14.404Z,94.34
2023-01-09T09:10:18.359Z,94.43
2023-01-09T09:13:21.414Z,95.09
2023-01-09T09:16:25.276Z,94.82
2023-01-09T09:19:28.336Z,95.40
2023-01-09T09:22:31.453Z,96.94
2023-01-09T09:25:38.313Z,97.07
2023-01-09T09:28:40.978Z,96.94
2023-01-09T09:31:44.437Z,96.85
2023-01-09T09:34:47.072Z,97.57
2023-01-09T09:37:58.106Z,97.70
2023-01-09T09:41:29.693Z,98.09
2023-01-09T09:45:05.261Z,97.55
2023-01-09T09:48:16.884Z,97.56
2023-01-09T09:51:50.293Z,98.23
2023-01-09T09:54:53.197Z,98.49
2023-01-09T09:57:58.660Z,98.68
2023-01-09T10:01:02.179Z,98.99
2023-01-09T10:04:11.589Z,99.20
2023-01-09T10:07:29.858Z,99.67
2023-01-09T10:10:46.988Z,100.00
2023-01-09T10:14:06.280Z,100.00
2023-01-09T10:17:44.503Z,99.95
2023-01-09T10:20:49.507Z,99.71
2023-01-09T10:24:14.921Z,99.24
2023-01-09T10:27:25.765Z,99.33
2023-01-09T10:30:33.607Z,99.23
2023-01-09T10:34:03.705Z,97.93
2023-01-09T10:37:09.785Z,96.79
2023-01-09T10:40:41.405Z,95.78
2023-01-09T10:44:01.199Z,96.61
2023-01-09T10:47:12.138Z,96.71
2023-01-09T10:50:31.079Z,95.52
2023-01-09T10:53:38.835Z,96.36
2023-01-09T10:56:48.106Z,95.47
2023-01-09T10:59:50.756Z,95.55
2023-01-09T11:02:55.179Z,94.67
2023-01-09T11:05:59.437Z,95.26
2023-01-09T11:09:03.296Z,95.75
2023-01-09T11:12:27.319Z,94.96
2023-01-09T11:15:30.479Z,95.07
2023-01-09T11:18:35.157Z,94.27
2023-01-09T11:21:40.724Z,94.40
2023-01-09T11:24:44.049Z,94.94
2023-01-09T11:28:06.856Z,94.61
2023-01-09T11:31:09.966Z,94.41
2023-01-09T11:34:19.284Z,94.62
2023-01-09T11:37:32.156Z,95.29
2023-01-09T11:40:59.408Z,96.54
2023-01-09T11:44:04.692Z,95.24
2023-01-09T11:47:25.863Z,95.37
2023-01-09T11:50:30.777Z,95.31
2023-01-09T11:53:52.225Z,94.83
2023-01-09T11:56:56.147Z,94.71
2023-01-09T12:00:03.398Z,95.74
2023-01-09T12:03:22.056Z,96.05
2023-01-09T12:06:37.789Z,94.85
2023-01-09T12:09:40.588Z,94.76
2023-01-09T12:13:03.678Z,94.71
2023-01-09T12:16:20.687Z,93.79
2023-01-09T12:19:38.283Z,95.16
2023-01-09T12:23:13.399Z,95.03
2023-01-09T12:26:19.909Z,94.91
2023-01-09T12:29:25.645Z,94.14
2023-01-09T12:32:31.459Z,94.45
2023-01-09T12:35:44.528Z,92.76
2023-01-09T12:38:56.307Z,93.83
2023-01-09T12:42:25.438Z,93.28
2023-01-09T12:45:52.758Z,93.77
2023-01-09T12:49:10.245Z,93.03
2023-01-09T12:52:23.492Z,93.46
2023-01-09T12:55:38.634Z,93.20
2023-01-09T12:58:45.026Z,92.14
2023-01-09T13:01:50.182Z,93.48
2023-01-09T13:05:21.684Z,92.84
2023-01-09T13:08:34.432Z,95.75
2023-01-09T13:11:45.266Z,95.22
2023-01-09T13:15:03.746Z,95.45
2023-01-09T13:18:09.640Z,95.94
2023-01-09T13:21:13.699Z,96.19
2023-01-09T13:24:22.829Z,97.24
2023-01-09T13:27:31.698Z,97.86
2023-01-09T13:30:58.527Z,98.30
2023-01-09T13:34:04.523Z,98.84
2023-01-09T13:37:26.085Z,99.35
2023-01-09T13:40:30.384Z,98.62
2023-01-09T13:43:54.702Z,99.13
2023-01-09T13:47:00.905Z,99.36
2023-01-09T13:50:09.876Z,100.00
2023-01-09T13:53:18.247Z,99.56
2023-01-09T13:56:23.923Z,99.73
2023-01-09T13:59:28.791Z,98.86
2023-01-09T14:02:34.836Z,98.08
2023-01-09T14:05:38.037Z,98.28
2023-01-09T14:08:42.135Z,97.56
2023-01-09T14:11:47.417Z,97.83
2023-01-09T14:14:53.921Z,97.55
2023-01-09T14:18:05.862Z,96.28
2023-01-09T14:21:12.092Z,96.59
2023-01-09T14:24:32.272Z,97.72
2023-01-09T14:28:09.131Z,97.08
2023-01-09T14:31:29.910Z,98.02
2023-01-09T14:34:37.874Z,98.42
2023-01-09T14:37:41.998Z,97.80
2023-01-09T14:41:47.599Z,97.63
2023-01-09T14:45:00.884Z,97.39
2023-01-09T14:48:11.337Z,96.92
2023-01-09T14:51:17.429Z,97.20
2023-01-09T14:54:30.081Z,97.00
2023-01-09T14:57:34.821Z,96.71
2023-01-09T15:00:45.393Z,96.61
2023-01-09T15:03:51.584Z,96.49
2023-01-09T15:06:54.423Z,95.97
2023-01-09T15:10:02.322Z,96.42
2023-01-09T15:13:10.383Z,97.42
2023-01-09T15:16:19.081Z,98.26
2023-01-09T15:19:21.756Z,96.47
2023-01-09T15:22:36.244Z,96.74
2023-01-09T15:25:40.819Z,96.60
2023-01-09T15:28:44.087Z,96.27
2023-01-09T15:31:49.928Z,96.49
2023-01-09T15:34:55.280Z,96.64
2023-01-09T15:37:58.896Z,96.79
2023-01-09T15:41:08.661Z,96.70
2023-01-09T15:44:21.247Z,95.76
2023-01-09T15:47:27.918Z,95.53
2023-01-09T15:50:30.895Z,95.20
2023-01-09T15:53:34.546Z,95.48
2023-01-09T15:56:39.328Z,94.68
2023-01-09T15:59:42.209Z,94.99
2023-01-09T16:03:04.925Z,95.28
2023-01-09T16:06:13.687Z,95.02
2023-01-09T16:09:29.396Z,95.48
2023-01-09T16:12:33.452Z,95.35
2023-01-09T16:15:36.077Z,95.61
2023-01-09T16:18:49.573Z,95.91
2023-01-09T16:21:58.239Z,95.74
2023-01-09T16:25:22.058Z,95.73
2023-01-09T16:28:30.703Z,95.77
2023-01-09T16:31:33.991Z,95.31
2023-01-09T16:34:36.583Z,94.49
2023-01-09T16:37:40.489Z,94.16
2023-01-09T16:41:26.485Z,94.04
2023-01-09T16:44:29.352Z,93.25
2023-01-09T16:47:31.961Z,93.01
2023-01-09T16:50:34.937Z,93.10
2023-01-09T16:53:37.720Z,93.69
2023-01-09T16:56:42.929Z,93.25
2023-01-09T16:59:46.090Z,93.47
2023-01-09T17:02:49.042Z,93.95
2023-01-09T17:05:54.877Z,93.60
2023-01-09T17:08:58.509Z,93.18
2023-01-09T17:12:01.113Z,93.47
2023-01-09T17:15:04.303Z,93.72
2023-01-09T17:18:16.779Z,94.06
2023-01-09T17:21:24.759Z,94.10
2023-01-09T17:24:46.281Z,94.46
2023-01-09T17:28:07.974Z,94.32
2023-01-09T17:31:12.023Z,94.72
2023-01-09T17:34:14.982Z,95.10
2023-01-09T17:37:19.167Z,95.44
2023-01-09T17:40:23.609Z,96.06
2023-01-09T17:43:26.127Z,96.95
2023-01-09T17:46:31.454Z,98.19
2023-01-09T17:49:34.685Z,98.04
2023-01-09T17:52:37.613Z,99.58
2023-01-09T17:55:41.760Z,99.54
2023-01-09T17:58:48.203Z,100.00
2023-01-09T18:01:50.940Z,99.96
2023-01-09T18:04:53.982Z,100.00
2023-01-09T18:07:57.386Z,100.00
2023-01-09T18:11:04.671Z,100.00
2023-01-09T18:14:08.435Z,99.40
2023-01-09T18:17:13.246Z,99.75
2023-01-09T18:20:16.266Z,99.24
2023-01-09T18:23:19.762Z,100.00
2023-01-09T18:26:24.408Z,100.00
2023-01-09T18:29:27.872Z,100.00
2023-01-09T18:32:30.924Z,100.00
2023-01-09T18:35:34.235Z,100.00
2023-01-09T18:38:39.574Z,100.00
2023-01-09T18:41:43.124Z,100.00
2023-01-09T18:44:45.709Z,100.00
2023-01-09T18:47:48.572Z,100.00
2023-01-09T18:50:51.264Z,100.00
2023-01-09T18:53:56.098Z,100.00
2023-01-09T18:56:58.742Z,100.00
2023-01-09T19:00:01.984Z,100.00
2023-01-09T19:03:05.932Z,100.00
2023-01-09T19:06:09.148Z,100.00
2023-01-09T19:09:12.159Z,100.00
2023-01-09T19:12:15.602Z,100.00
2023-01-09T19:15:18.714Z,100.00
2023-01-09T19:18:24.246Z,100.00
2023-01-09T19:21:27.708Z,100.00
2023-01-09T19:24:33.132Z,100.00
2023-01-09T19:27:36.749Z,100.00
2023-01-09T19:30:40.458Z,100.00
2023-01-09T19:33:44.776Z,100.00
2023-01-09T19:36:47.977Z,100.00
2023-01-09T19:39:53.293Z,100.00
2023-01-09T19:42:57.764Z,100.00
2023-01-09T19:46:01.689Z,100.00
2023-01-09T19:49:06.252Z,100.00
2023-01-09T19:52:08.925Z,100.00
2023-01-09T19:55:13.776Z,100.00
2023-01-09T19:58:17.126Z,100.00
2023-01-09T20:01:24.685Z,100.00
2023-01-09T20:04:29.926Z,100.00
2023-01-09T20:07:32.658Z,100.00
2023-01-09T20:10:39.942Z,100.00
2023-01-09T20:13:43.925Z,100.00
2023-01-09T20:16:50.158Z,100.00
2023-01-09T20:19:53.184Z,100.00
2023-01-09T20:22:56.243Z,100.00
2023-01-09T20:26:00.194Z,100.00
2023-01-09T20:29:04.535Z,100.00
2023-01-09T20:32:09.927Z,100.00
2023-01-09T20:35:12.811Z,100.00
2023-01-09T20:38:15.771Z,100.00
2023-01-09T20:41:25.996Z,100.00
2023-01-09T20:44:29.133Z,100.00
2023-01-09T20:47:32.216Z,100.00
2023-01-09T20:50:35.454Z,100.00
2023-01-09T20:53:55.533Z,100.00
2023-01-09T20:56:58.998Z,100.00
2023-01-09T21:00:02.268Z,100.00
2023-01-09T21:03:06.410Z,100.00
2023-01-09T21:06:15.114Z,100.00
2023-01-09T21:09:17.829Z,100.00
2023-01-09T21:12:28.689Z,100.00
2023-01-09T21:15:31.549Z,100.00
2023-01-09T21:18:34.900Z,100.00
2023-01-09T21:21:38.323Z,100.00
2023-01-09T21:24:41.193Z,100.00
2023-01-09T21:27:46.269Z,100.00
2023-01-09T21:30:53.016Z,100.00
2023-01-09T21:33:56.037Z,100.00
2023-01-09T21:36:59.172Z,100.00
2023-01-09T21:40:02.351Z,100.00
2023-01-09T21:43:23.774Z,100.00
2023-01-09T21:46:44.874Z,100.00
2023-01-09T21:49:47.831Z,100.00
2023-01-09T21:52:50.444Z,100.00
2023-01-09T21:55:55.242Z,100.00
2023-01-09T21:58:57.925Z,100.00
2023-01-09T22:02:00.832Z,100.00
2023-01-09T22:05:03.989Z,100.00
2023-01-09T22:08:07.112Z,100.00
2023-01-09T22:11:10.561Z,100.00
2023-01-09T22:14:15.789Z,100.00
2023-01-09T22:17:18.739Z,100.00
2023-01-09T22:20:21.295Z,100.00
2023-01-09T22:23:24.360Z,100.00
2023-01-09T22:26:27.795Z,100.00
2023-01-09T22:29:30.778Z,100.00
2023-01-09T22:32:35.064Z,100.00
2023-01-09T22:35:39.527Z,100.00
2023-01-09T22:38:42.302Z,100.00
2023-01-09T22:41:49.619Z,100.00
2023-01-09T22:44:52.310Z,100.00
2023-01-09T22:47:56.283Z,100.00
2023-01-09T22:51:04.611Z,100.00
2023-01-09T22:54:07.584Z,100.00
2023-01-09T22:57:10.218Z,100.00
2023-01-09T23:00:14.984Z,100.00
2023-01-09T23:03:17.779Z,100.00
2023-01-09T23:06:22.979Z,100.00
2023-01-09T23:09:26.789Z,100.00
2023-01-09T23:12:29.676Z,100.00
2023-01-09T23:15:32.298Z,100.00
2023-01-09T23:18:35.201Z,100.00
2023-01-09T23:21:37.753Z,100.00
2023-01-09T23:24:40.692Z,100.00
2023-01-09T23:27:43.362Z,100.00
2023-01-09T23:30:46.969Z,100.00
2023-01-09T23:33:49.702Z,100.00
2023-01-09T23:36:54.341Z,100.00
2023-01-09T23:39:57.060Z,100.00
2023-01-09T23:43:08.977Z,100.00
2023-01-09T23:46:14.980Z,100.00
2023-01-09T23:49:18.129Z,100.00
2023-01-09T23:52:20.879Z,100.00
2023-01-09T23:55:24.244Z,100.00
2023-01-09T23:58:27.729Z,100.00
